Harwood, MD

12:24 PM EST on December 21, 2014 (GMT -0500)
Birdsville | Change Station
CLOSE
Current Station
Personal Weather Station
Location: Harwood, MD
Elevation: 151 ft
Nearby Weather Stations

Elev 151 ft 38.90 °N, 76.60 °W | Updated 12 minutes ago

Mostly Cloudy
Mostly Cloudy
37.9 °F
Feels Like 38 °F
N
0.0
Wind Variable Wind from NNW

Today
High -- | Low -- °F
--% Chance of Precip.
Yesterday
High -- | Low -- °F
Precip. -- in
7:21 AM 4:47 PM
Waning Crescent, 0% visible
Pressure 30.35 in
Visibility 8.0 miles
Clouds Overcast 7000 ft
Windchill 38 °F
Dew Point 26 °F
Humidity 63%
Rainfall 0.00 in
Snow Depth Not available.
UV 1 out of 12
Pollen .10 out of 12
Air Quality Not available.
Flu Activity Not available.
METAR KNAK 211654Z AUTO 31004KT 8SM OVC070 03/M05 A3034 RMK AO2 SLP276 T00281050 $

More Conditions Fewer Conditions

Pressure 30.35 in
Visibility 8.0 miles
Clouds Overcast 7000 ft
Windchill 38 °F
Dew Point 26 °F
Humidity 63%
Rainfall 0.00 in
Snow Depth Not available.
UV 1 out of 12
Pollen .10 out of 12
Air Quality Not available.
Flu Activity Not available.
METAR KNAK 211654Z AUTO 31004KT 8SM OVC070 03/M05 A3034 RMK AO2 SLP276 T00281050 $

More Conditions Fewer Conditions

10-Day Weather Forecast

Almanac

Astronomy

Dec. 21, 2014 Rise Set
Actual Time
Civil Twilight
Nautical Twilight
Astronomical Twilight
Moon
Length of Visible Light
Length of Day
Tomorrow will be .
, % of the Moon is Illuminated

Today's Extremes

State Highs State Lows

Community

WunderPhotos

Upload Photos

1,779,436 photos uploaded!

WunderBlogs® & News

Nearby

Air Quality

  Air Quality AQ Index Pollutant
Not available.

Snow Depth

Station Depth Elevation

Earthquake Activity

City Distance Mag. Time & Date
Minimum magnitude displayed is 2.5.

Coastal Water Temperatures

Place Temperature

Nearby Weather Stations